Archival Weather

Fukuoka

Fukuoka, Japan (RJFF)

Report from: Tuesday, August 16, 2022 10:00 PM JST
Current time: Sunday, November 27, 2022 6:33 PM JST

Current weather
Weather history
Weather forecast

Present weatherVCSH
Temperature26.0°C (78.8°F)
Dew point25.0°C (77.0°F)
Winds 5 kts (2.6 m/s, 5.8 mph) East-Southeast (110°)
Visibility6.2 mi. (10 km)
Clouds Few clouds 800 ft. (244 m)
Scattered clouds 4,500 ft. (1,372 m)
Ceiling: Broken clouds 5,000 ft. (1,524 m)
Altimeter29.77 in.Hg (1008 mB)
Relative humidity94 %
Density altitude1,871 ft. (570 m)
Remarks No significant changes expected in the next two hours
Flight conditions Visual Meteorological Conditions
Raw dataRJFF 161300Z 11005KT 9999 VCSH FEW008 SCT045 BKN050 26/25 Q1008 NOSIG
An error has occurred. This application may no longer respond until reloaded. Reload 🗙